sensor_id;sensor_type;location;lat;lon;timestamp;P1;durP1;ratioP1;P2;durP2;ratioP2
15878;SDS011;61999;51.514;14.614;2023-07-22T00:01:57;4.13;;;3.23;;
15878;SDS011;61999;51.514;14.614;2023-07-22T00:04:25;3.03;;;2.83;;
15878;SDS011;61999;51.514;14.614;2023-07-22T00:06:53;3.10;;;2.80;;
15878;SDS011;61999;51.514;14.614;2023-07-22T00:09:21;3.07;;;2.87;;
15878;SDS011;61999;51.514;14.614;2023-07-22T00:11:51;2.67;;;2.47;;
15878;SDS011;61999;51.514;14.614;2023-07-22T00:14:19;3.27;;;2.93;;
15878;SDS011;61999;51.514;14.614;2023-07-22T00:16:47;3.60;;;3.30;;
15878;SDS011;61999;51.514;14.614;2023-07-22T00:19:15;2.80;;;2.60;;
15878;SDS011;61999;51.514;14.614;2023-07-22T00:21:44;2.87;;;2.67;;
15878;SDS011;61999;51.514;14.614;2023-07-22T00:24:12;4.20;;;2.87;;
15878;SDS011;61999;51.514;14.614;2023-07-22T00:26:40;3.10;;;2.90;;
15878;SDS011;61999;51.514;14.614;2023-07-22T00:29:10;3.50;;;2.80;;
15878;SDS011;61999;51.514;14.614;2023-07-22T00:31:38;2.80;;;2.60;;
15878;SDS011;61999;51.514;14.614;2023-07-22T00:34:07;2.90;;;2.70;;
15878;SDS011;61999;51.514;14.614;2023-07-22T00:36:36;3.03;;;2.83;;
15878;SDS011;61999;51.514;14.614;2023-07-22T00:39:05;3.30;;;3.00;;
15878;SDS011;61999;51.514;14.614;2023-07-22T00:41:32;3.10;;;2.87;;
15878;SDS011;61999;51.514;14.614;2023-07-22T00:44:00;3.70;;;3.00;;
15878;SDS011;61999;51.514;14.614;2023-07-22T00:46:30;2.80;;;2.60;;
15878;SDS011;61999;51.514;14.614;2023-07-22T00:48:58;3.10;;;2.90;;
15878;SDS011;61999;51.514;14.614;2023-07-22T00:51:25;2.87;;;2.67;;
15878;SDS011;61999;51.514;14.614;2023-07-22T00:53:53;2.90;;;2.70;;
15878;SDS011;61999;51.514;14.614;2023-07-22T00:56:21;3.07;;;2.80;;
15878;SDS011;61999;51.514;14.614;2023-07-22T00:58:49;3.23;;;2.60;;
15878;SDS011;61999;51.514;14.614;2023-07-22T01:01:17;2.77;;;2.57;;
15878;SDS011;61999;51.514;14.614;2023-07-22T01:03:47;3.10;;;2.53;;
15878;SDS011;61999;51.514;14.614;2023-07-22T01:06:15;4.60;;;3.10;;
15878;SDS011;61999;51.514;14.614;2023-07-22T01:08:44;3.73;;;3.00;;
15878;SDS011;61999;51.514;14.614;2023-07-22T01:11:13;4.80;;;3.00;;
15878;SDS011;61999;51.514;14.614;2023-07-22T01:13:41;2.83;;;2.63;;
15878;SDS011;61999;51.514;14.614;2023-07-22T01:16:09;4.20;;;2.80;;
15878;SDS011;61999;51.514;14.614;2023-07-22T01:18:38;3.63;;;2.80;;
15878;SDS011;61999;51.514;14.614;2023-07-22T01:21:07;3.10;;;2.80;;
15878;SDS011;61999;51.514;14.614;2023-07-22T01:23:38;3.30;;;3.00;;
15878;SDS011;61999;51.514;14.614;2023-07-22T01:26:07;2.90;;;2.70;;
15878;SDS011;61999;51.514;14.614;2023-07-22T01:28:36;2.70;;;2.50;;
15878;SDS011;61999;51.514;14.614;2023-07-22T01:31:04;3.37;;;3.07;;
15878;SDS011;61999;51.514;14.614;2023-07-22T01:33:32;3.10;;;2.80;;
15878;SDS011;61999;51.514;14.614;2023-07-22T01:36:00;3.50;;;3.20;;
15878;SDS011;61999;51.514;14.614;2023-07-22T01:38:28;3.53;;;2.80;;
15878;SDS011;61999;51.514;14.614;2023-07-22T01:40:58;3.40;;;3.10;;
15878;SDS011;61999;51.514;14.614;2023-07-22T01:43:26;5.33;;;3.23;;
15878;SDS011;61999;51.514;14.614;2023-07-22T01:45:54;3.30;;;2.87;;
15878;SDS011;61999;51.514;14.614;2023-07-22T01:48:22;4.07;;;2.90;;
15878;SDS011;61999;51.514;14.614;2023-07-22T01:50:50;3.10;;;2.80;;
15878;SDS011;61999;51.514;14.614;2023-07-22T01:53:18;3.23;;;3.03;;
15878;SDS011;61999;51.514;14.614;2023-07-22T01:55:47;3.93;;;2.77;;
15878;SDS011;61999;51.514;14.614;2023-07-22T01:58:16;3.80;;;3.20;;
15878;SDS011;61999;51.514;14.614;2023-07-22T02:00:44;4.00;;;3.20;;
15878;SDS011;61999;51.514;14.614;2023-07-22T02:03:17;4.00;;;3.27;;
15878;SDS011;61999;51.514;14.614;2023-07-22T02:05:45;3.20;;;2.90;;
15878;SDS011;61999;51.514;14.614;2023-07-22T02:08:13;3.17;;;2.77;;
15878;SDS011;61999;51.514;14.614;2023-07-22T02:10:40;3.90;;;3.43;;
15878;SDS011;61999;51.514;14.614;2023-07-22T02:13:08;4.20;;;3.13;;
15878;SDS011;61999;51.514;14.614;2023-07-22T02:15:38;4.87;;;3.13;;
15878;SDS011;61999;51.514;14.614;2023-07-22T02:18:09;3.97;;;3.20;;
15878;SDS011;61999;51.514;14.614;2023-07-22T02:20:37;3.87;;;3.47;;
15878;SDS011;61999;51.514;14.614;2023-07-22T02:23:05;5.30;;;3.87;;
15878;SDS011;61999;51.514;14.614;2023-07-22T02:25:35;3.70;;;3.40;;
15878;SDS011;61999;51.514;14.614;2023-07-22T02:28:03;4.93;;;3.57;;
15878;SDS011;61999;51.514;14.614;2023-07-22T02:30:33;3.33;;;3.03;;
15878;SDS011;61999;51.514;14.614;2023-07-22T02:33:06;4.43;;;3.70;;
15878;SDS011;61999;51.514;14.614;2023-07-22T02:35:35;5.40;;;3.60;;
15878;SDS011;61999;51.514;14.614;2023-07-22T02:38:02;3.77;;;3.47;;
15878;SDS011;61999;51.514;14.614;2023-07-22T02:40:33;5.20;;;4.10;;
15878;SDS011;61999;51.514;14.614;2023-07-22T02:43:01;4.27;;;3.87;;
15878;SDS011;61999;51.514;14.614;2023-07-22T02:45:30;4.20;;;3.80;;
15878;SDS011;61999;51.514;14.614;2023-07-22T02:47:58;4.03;;;3.47;;
15878;SDS011;61999;51.514;14.614;2023-07-22T02:50:27;4.00;;;3.67;;
15878;SDS011;61999;51.514;14.614;2023-07-22T02:52:55;6.63;;;4.13;;
15878;SDS011;61999;51.514;14.614;2023-07-22T02:55:23;4.40;;;4.03;;
15878;SDS011;61999;51.514;14.614;2023-07-22T02:57:51;4.20;;;3.80;;
15878;SDS011;61999;51.514;14.614;2023-07-22T03:00:19;6.47;;;4.17;;
15878;SDS011;61999;51.514;14.614;2023-07-22T03:02:50;5.97;;;4.10;;
15878;SDS011;61999;51.514;14.614;2023-07-22T03:05:19;5.97;;;4.67;;
15878;SDS011;61999;51.514;14.614;2023-07-22T03:07:49;4.63;;;4.23;;
15878;SDS011;61999;51.514;14.614;2023-07-22T03:10:17;5.23;;;3.93;;
15878;SDS011;61999;51.514;14.614;2023-07-22T03:12:45;4.43;;;4.00;;
15878;SDS011;61999;51.514;14.614;2023-07-22T03:15:14;4.30;;;3.90;;
15878;SDS011;61999;51.514;14.614;2023-07-22T03:17:45;5.27;;;4.30;;
15878;SDS011;61999;51.514;14.614;2023-07-22T03:20:13;4.63;;;4.23;;
15878;SDS011;61999;51.514;14.614;2023-07-22T03:22:42;4.70;;;4.20;;
15878;SDS011;61999;51.514;14.614;2023-07-22T03:25:12;4.63;;;4.23;;
15878;SDS011;61999;51.514;14.614;2023-07-22T03:27:43;4.30;;;3.90;;
15878;SDS011;61999;51.514;14.614;2023-07-22T03:30:12;4.90;;;4.40;;
15878;SDS011;61999;51.514;14.614;2023-07-22T03:32:42;5.13;;;4.63;;
15878;SDS011;61999;51.514;14.614;2023-07-22T03:35:11;4.53;;;4.00;;
15878;SDS011;61999;51.514;14.614;2023-07-22T03:37:40;4.93;;;4.43;;
15878;SDS011;61999;51.514;14.614;2023-07-22T03:40:08;5.30;;;4.70;;
15878;SDS011;61999;51.514;14.614;2023-07-22T03:42:45;4.80;;;4.40;;
15878;SDS011;61999;51.514;14.614;2023-07-22T03:45:14;4.87;;;4.47;;
15878;SDS011;61999;51.514;14.614;2023-07-22T03:47:43;7.57;;;5.10;;
15878;SDS011;61999;51.514;14.614;2023-07-22T03:50:12;5.23;;;4.73;;
15878;SDS011;61999;51.514;14.614;2023-07-22T03:52:40;6.00;;;5.50;;
15878;SDS011;61999;51.514;14.614;2023-07-22T03:55:09;6.90;;;4.90;;
15878;SDS011;61999;51.514;14.614;2023-07-22T03:57:38;5.13;;;4.63;;
15878;SDS011;61999;51.514;14.614;2023-07-22T04:00:06;5.67;;;5.17;;
15878;SDS011;61999;51.514;14.614;2023-07-22T04:02:36;5.20;;;4.70;;
15878;SDS011;61999;51.514;14.614;2023-07-22T04:05:05;6.20;;;5.63;;
15878;SDS011;61999;51.514;14.614;2023-07-22T04:07:34;6.10;;;5.50;;
15878;SDS011;61999;51.514;14.614;2023-07-22T04:10:02;5.90;;;5.30;;
15878;SDS011;61999;51.514;14.614;2023-07-22T04:12:32;7.37;;;4.97;;
15878;SDS011;61999;51.514;14.614;2023-07-22T04:15:01;6.67;;;5.30;;
15878;SDS011;61999;51.514;14.614;2023-07-22T04:17:29;4.47;;;4.07;;
15878;SDS011;61999;51.514;14.614;2023-07-22T04:19:57;4.87;;;4.47;;
15878;SDS011;61999;51.514;14.614;2023-07-22T04:22:26;6.00;;;4.90;;
15878;SDS011;61999;51.514;14.614;2023-07-22T04:24:55;7.90;;;6.20;;
15878;SDS011;61999;51.514;14.614;2023-07-22T04:27:23;6.53;;;5.13;;
15878;SDS011;61999;51.514;14.614;2023-07-22T04:29:50;9.27;;;5.57;;
15878;SDS011;61999;51.514;14.614;2023-07-22T04:32:20;6.97;;;5.40;;
15878;SDS011;61999;51.514;14.614;2023-07-22T04:34:49;5.30;;;3.60;;
15878;SDS011;61999;51.514;14.614;2023-07-22T04:37:17;6.93;;;5.50;;
15878;SDS011;61999;51.514;14.614;2023-07-22T04:39:48;6.23;;;5.60;;
15878;SDS011;61999;51.514;14.614;2023-07-22T04:42:16;6.30;;;5.73;;
15878;SDS011;61999;51.514;14.614;2023-07-22T04:44:44;6.30;;;5.50;;
15878;SDS011;61999;51.514;14.614;2023-07-22T04:47:12;6.37;;;5.77;;
15878;SDS011;61999;51.514;14.614;2023-07-22T04:49:41;8.93;;;5.70;;
15878;SDS011;61999;51.514;14.614;2023-07-22T04:52:09;6.27;;;5.63;;
15878;SDS011;61999;51.514;14.614;2023-07-22T04:54:37;5.97;;;5.37;;
15878;SDS011;61999;51.514;14.614;2023-07-22T04:57:05;6.57;;;5.73;;
15878;SDS011;61999;51.514;14.614;2023-07-22T04:59:33;8.33;;;5.30;;
15878;SDS011;61999;51.514;14.614;2023-07-22T05:02:01;6.43;;;5.37;;
15878;SDS011;61999;51.514;14.614;2023-07-22T05:04:29;7.63;;;5.40;;
15878;SDS011;61999;51.514;14.614;2023-07-22T05:06:58;8.50;;;5.77;;
15878;SDS011;61999;51.514;14.614;2023-07-22T05:09:26;7.87;;;5.70;;
15878;SDS011;61999;51.514;14.614;2023-07-22T05:11:54;5.67;;;4.93;;
15878;SDS011;61999;51.514;14.614;2023-07-22T05:14:22;5.37;;;4.87;;
15878;SDS011;61999;51.514;14.614;2023-07-22T05:16:51;5.73;;;4.93;;
15878;SDS011;61999;51.514;14.614;2023-07-22T05:19:19;6.00;;;5.40;;
15878;SDS011;61999;51.514;14.614;2023-07-22T05:21:47;5.50;;;5.00;;
15878;SDS011;61999;51.514;14.614;2023-07-22T05:24:16;5.93;;;5.43;;
15878;SDS011;61999;51.514;14.614;2023-07-22T05:26:44;7.50;;;5.33;;
15878;SDS011;61999;51.514;14.614;2023-07-22T05:29:17;5.87;;;5.37;;
15878;SDS011;61999;51.514;14.614;2023-07-22T05:31:45;5.27;;;4.87;;
15878;SDS011;61999;51.514;14.614;2023-07-22T05:34:13;6.20;;;5.47;;
15878;SDS011;61999;51.514;14.614;2023-07-22T05:36:41;5.93;;;5.40;;
15878;SDS011;61999;51.514;14.614;2023-07-22T05:39:09;5.80;;;5.17;;
15878;SDS011;61999;51.514;14.614;2023-07-22T05:41:39;4.67;;;4.30;;
15878;SDS011;61999;51.514;14.614;2023-07-22T05:44:07;5.87;;;4.60;;
15878;SDS011;61999;51.514;14.614;2023-07-22T05:46:34;5.93;;;4.60;;
15878;SDS011;61999;51.514;14.614;2023-07-22T05:49:04;5.43;;;4.13;;
15878;SDS011;61999;51.514;14.614;2023-07-22T05:51:32;6.83;;;5.07;;
15878;SDS011;61999;51.514;14.614;2023-07-22T05:54:00;5.23;;;4.73;;
15878;SDS011;61999;51.514;14.614;2023-07-22T05:56:28;5.57;;;4.73;;
15878;SDS011;61999;51.514;14.614;2023-07-22T05:58:57;4.90;;;4.43;;
15878;SDS011;61999;51.514;14.614;2023-07-22T06:01:25;6.03;;;4.00;;
15878;SDS011;61999;51.514;14.614;2023-07-22T06:03:53;7.00;;;4.37;;
15878;SDS011;61999;51.514;14.614;2023-07-22T06:06:21;5.50;;;4.80;;
15878;SDS011;61999;51.514;14.614;2023-07-22T06:08:49;4.80;;;4.40;;
15878;SDS011;61999;51.514;14.614;2023-07-22T06:11:17;5.03;;;4.63;;
15878;SDS011;61999;51.514;14.614;2023-07-22T06:13:45;9.23;;;4.70;;
15878;SDS011;61999;51.514;14.614;2023-07-22T06:16:15;4.80;;;4.40;;
15878;SDS011;61999;51.514;14.614;2023-07-22T06:18:43;5.30;;;4.80;;
15878;SDS011;61999;51.514;14.614;2023-07-22T06:21:11;4.83;;;4.43;;
15878;SDS011;61999;51.514;14.614;2023-07-22T06:23:39;6.33;;;5.30;;
15878;SDS011;61999;51.514;14.614;2023-07-22T06:26:07;5.53;;;5.00;;
15878;SDS011;61999;51.514;14.614;2023-07-22T06:28:35;5.60;;;5.10;;
15878;SDS011;61999;51.514;14.614;2023-07-22T06:31:02;4.77;;;4.27;;
15878;SDS011;61999;51.514;14.614;2023-07-22T06:33:32;5.93;;;5.00;;
15878;SDS011;61999;51.514;14.614;2023-07-22T06:36:00;5.83;;;4.70;;
15878;SDS011;61999;51.514;14.614;2023-07-22T06:38:28;5.60;;;4.50;;
15878;SDS011;61999;51.514;14.614;2023-07-22T06:40:56;5.80;;;5.20;;
15878;SDS011;61999;51.514;14.614;2023-07-22T06:43:24;4.67;;;4.27;;
15878;SDS011;61999;51.514;14.614;2023-07-22T06:45:53;6.40;;;5.17;;
15878;SDS011;61999;51.514;14.614;2023-07-22T06:48:21;6.00;;;4.73;;
15878;SDS011;61999;51.514;14.614;2023-07-22T06:50:50;4.50;;;4.10;;
15878;SDS011;61999;51.514;14.614;2023-07-22T06:53:18;4.40;;;4.10;;
15878;SDS011;61999;51.514;14.614;2023-07-22T06:55:50;5.07;;;4.63;;
15878;SDS011;61999;51.514;14.614;2023-07-22T06:58:19;5.83;;;4.40;;
15878;SDS011;61999;51.514;14.614;2023-07-22T07:00:52;4.60;;;4.20;;
15878;SDS011;61999;51.514;14.614;2023-07-22T07:03:21;4.07;;;3.57;;
15878;SDS011;61999;51.514;14.614;2023-07-22T07:05:54;5.30;;;4.10;;
15878;SDS011;61999;51.514;14.614;2023-07-22T07:08:22;4.83;;;4.20;;
15878;SDS011;61999;51.514;14.614;2023-07-22T07:10:51;4.43;;;4.03;;
15878;SDS011;61999;51.514;14.614;2023-07-22T07:13:19;4.47;;;4.07;;
15878;SDS011;61999;51.514;14.614;2023-07-22T07:15:47;5.03;;;3.97;;
15878;SDS011;61999;51.514;14.614;2023-07-22T07:18:16;6.37;;;4.47;;
15878;SDS011;61999;51.514;14.614;2023-07-22T07:20:44;4.60;;;3.83;;
15878;SDS011;61999;51.514;14.614;2023-07-22T07:23:13;4.07;;;3.73;;
15878;SDS011;61999;51.514;14.614;2023-07-22T07:25:42;6.43;;;4.67;;
15878;SDS011;61999;51.514;14.614;2023-07-22T07:28:10;4.30;;;3.90;;
15878;SDS011;61999;51.514;14.614;2023-07-22T07:30:40;6.47;;;4.77;;
15878;SDS011;61999;51.514;14.614;2023-07-22T07:33:08;5.07;;;4.27;;
15878;SDS011;61999;51.514;14.614;2023-07-22T07:35:36;6.90;;;5.00;;
15878;SDS011;61999;51.514;14.614;2023-07-22T07:38:04;5.33;;;4.50;;
15878;SDS011;61999;51.514;14.614;2023-07-22T07:40:34;4.40;;;4.00;;
15878;SDS011;61999;51.514;14.614;2023-07-22T07:43:02;4.47;;;4.07;;
15878;SDS011;61999;51.514;14.614;2023-07-22T07:45:30;4.90;;;4.37;;
15878;SDS011;61999;51.514;14.614;2023-07-22T07:47:58;6.30;;;4.87;;
15878;SDS011;61999;51.514;14.614;2023-07-22T07:50:26;5.80;;;4.30;;
15878;SDS011;61999;51.514;14.614;2023-07-22T07:52:54;5.53;;;4.67;;
15878;SDS011;61999;51.514;14.614;2023-07-22T07:55:22;4.50;;;3.87;;
15878;SDS011;61999;51.514;14.614;2023-07-22T07:57:51;5.53;;;3.93;;
15878;SDS011;61999;51.514;14.614;2023-07-22T08:00:19;5.77;;;4.50;;
15878;SDS011;61999;51.514;14.614;2023-07-22T08:02:47;6.13;;;4.50;;
15878;SDS011;61999;51.514;14.614;2023-07-22T08:05:15;5.57;;;4.93;;
15878;SDS011;61999;51.514;14.614;2023-07-22T08:07:43;5.27;;;4.00;;
15878;SDS011;61999;51.514;14.614;2023-07-22T08:10:11;4.43;;;4.03;;
15878;SDS011;61999;51.514;14.614;2023-07-22T08:12:39;4.37;;;3.97;;
15878;SDS011;61999;51.514;14.614;2023-07-22T08:15:09;4.77;;;4.37;;
15878;SDS011;61999;51.514;14.614;2023-07-22T08:17:37;4.60;;;4.20;;
15878;SDS011;61999;51.514;14.614;2023-07-22T08:20:06;4.33;;;3.93;;
15878;SDS011;61999;51.514;14.614;2023-07-22T08:22:36;4.10;;;3.50;;
15878;SDS011;61999;51.514;14.614;2023-07-22T08:25:04;4.67;;;4.20;;
15878;SDS011;61999;51.514;14.614;2023-07-22T08:27:33;6.53;;;4.03;;
15878;SDS011;61999;51.514;14.614;2023-07-22T08:30:01;4.83;;;3.97;;
15878;SDS011;61999;51.514;14.614;2023-07-22T08:32:31;4.77;;;4.37;;
15878;SDS011;61999;51.514;14.614;2023-07-22T08:34:59;4.00;;;3.70;;
15878;SDS011;61999;51.514;14.614;2023-07-22T08:37:27;4.30;;;3.83;;
15878;SDS011;61999;51.514;14.614;2023-07-22T08:39:55;5.73;;;3.80;;
15878;SDS011;61999;51.514;14.614;2023-07-22T08:42:23;4.03;;;3.70;;
15878;SDS011;61999;51.514;14.614;2023-07-22T08:44:56;4.30;;;3.90;;
15878;SDS011;61999;51.514;14.614;2023-07-22T08:47:28;5.63;;;4.53;;
15878;SDS011;61999;51.514;14.614;2023-07-22T08:50:01;4.13;;;3.73;;
15878;SDS011;61999;51.514;14.614;2023-07-22T08:52:33;4.07;;;3.43;;
15878;SDS011;61999;51.514;14.614;2023-07-22T08:55:01;4.13;;;3.73;;
15878;SDS011;61999;51.514;14.614;2023-07-22T08:57:30;3.93;;;3.50;;
15878;SDS011;61999;51.514;14.614;2023-07-22T08:59:59;3.73;;;3.30;;
15878;SDS011;61999;51.514;14.614;2023-07-22T09:02:31;3.70;;;3.30;;
15878;SDS011;61999;51.514;14.614;2023-07-22T09:05:01;3.17;;;2.87;;
15878;SDS011;61999;51.514;14.614;2023-07-22T09:07:30;3.50;;;3.20;;
15878;SDS011;61999;51.514;14.614;2023-07-22T09:09:58;3.67;;;3.37;;
15878;SDS011;61999;51.514;14.614;2023-07-22T09:12:28;3.73;;;3.43;;
15878;SDS011;61999;51.514;14.614;2023-07-22T09:14:57;3.90;;;3.30;;
15878;SDS011;61999;51.514;14.614;2023-07-22T09:17:26;5.57;;;4.97;;
15878;SDS011;61999;51.514;14.614;2023-07-22T09:19:56;5.70;;;4.20;;
15878;SDS011;61999;51.514;14.614;2023-07-22T09:22:24;5.57;;;3.80;;
15878;SDS011;61999;51.514;14.614;2023-07-22T09:24:59;6.90;;;5.27;;
15878;SDS011;61999;51.514;14.614;2023-07-22T09:27:41;4.20;;;3.70;;
15878;SDS011;61999;51.514;14.614;2023-07-22T09:30:21;4.63;;;3.50;;
15878;SDS011;61999;51.514;14.614;2023-07-22T09:32:53;3.30;;;3.03;;
15878;SDS011;61999;51.514;14.614;2023-07-22T09:35:25;4.20;;;3.40;;
15878;SDS011;61999;51.514;14.614;2023-07-22T09:37:56;4.13;;;3.40;;
15878;SDS011;61999;51.514;14.614;2023-07-22T09:40:26;4.87;;;3.50;;
15878;SDS011;61999;51.514;14.614;2023-07-22T09:42:55;3.90;;;3.33;;
15878;SDS011;61999;51.514;14.614;2023-07-22T09:45:28;4.17;;;3.73;;
15878;SDS011;61999;51.514;14.614;2023-07-22T09:47:58;5.13;;;3.23;;
15878;SDS011;61999;51.514;14.614;2023-07-22T09:50:27;3.10;;;2.83;;
15878;SDS011;61999;51.514;14.614;2023-07-22T09:52:56;3.80;;;2.73;;
15878;SDS011;61999;51.514;14.614;2023-07-22T09:55:26;2.60;;;2.40;;
15878;SDS011;61999;51.514;14.614;2023-07-22T09:57:56;3.43;;;2.97;;
15878;SDS011;61999;51.514;14.614;2023-07-22T10:00:29;3.53;;;2.77;;
15878;SDS011;61999;51.514;14.614;2023-07-22T10:03:00;4.87;;;3.00;;
15878;SDS011;61999;51.514;14.614;2023-07-22T10:05:33;3.77;;;3.20;;
15878;SDS011;61999;51.514;14.614;2023-07-22T10:08:04;5.90;;;2.73;;
15878;SDS011;61999;51.514;14.614;2023-07-22T10:10:34;2.63;;;2.27;;
15878;SDS011;61999;51.514;14.614;2023-07-22T10:13:05;3.53;;;2.70;;
15878;SDS011;61999;51.514;14.614;2023-07-22T10:15:34;3.00;;;2.77;;
15878;SDS011;61999;51.514;14.614;2023-07-22T10:18:02;2.87;;;2.53;;
15878;SDS011;61999;51.514;14.614;2023-07-22T10:20:33;2.60;;;2.40;;
15878;SDS011;61999;51.514;14.614;2023-07-22T10:23:03;2.93;;;2.30;;
15878;SDS011;61999;51.514;14.614;2023-07-22T10:25:34;2.77;;;2.43;;
15878;SDS011;61999;51.514;14.614;2023-07-22T10:28:05;3.30;;;2.67;;
15878;SDS011;61999;51.514;14.614;2023-07-22T10:30:34;3.53;;;2.30;;
15878;SDS011;61999;51.514;14.614;2023-07-22T10:33:02;4.37;;;2.13;;
15878;SDS011;61999;51.514;14.614;2023-07-22T10:35:39;5.60;;;2.33;;
15878;SDS011;61999;51.514;14.614;2023-07-22T10:38:09;2.87;;;2.03;;
15878;SDS011;61999;51.514;14.614;2023-07-22T10:40:45;2.67;;;2.47;;
15878;SDS011;61999;51.514;14.614;2023-07-22T10:43:15;2.40;;;2.20;;
15878;SDS011;61999;51.514;14.614;2023-07-22T10:45:50;5.90;;;2.50;;
15878;SDS011;61999;51.514;14.614;2023-07-22T10:48:25;2.80;;;2.10;;
15878;SDS011;61999;51.514;14.614;2023-07-22T10:51:06;2.70;;;2.50;;
15878;SDS011;61999;51.514;14.614;2023-07-22T10:53:40;2.87;;;2.20;;
15878;SDS011;61999;51.514;14.614;2023-07-22T10:56:11;2.63;;;2.40;;
15878;SDS011;61999;51.514;14.614;2023-07-22T10:58:58;2.83;;;2.63;;
15878;SDS011;61999;51.514;14.614;2023-07-22T11:01:32;2.83;;;2.27;;
15878;SDS011;61999;51.514;14.614;2023-07-22T11:04:07;3.77;;;2.40;;
15878;SDS011;61999;51.514;14.614;2023-07-22T11:06:59;2.47;;;2.27;;
15878;SDS011;61999;51.514;14.614;2023-07-22T11:09:40;2.90;;;2.60;;
15878;SDS011;61999;51.514;14.614;2023-07-22T11:12:13;3.03;;;2.47;;
15878;SDS011;61999;51.514;14.614;2023-07-22T11:14:45;2.80;;;2.50;;
15878;SDS011;61999;51.514;14.614;2023-07-22T11:17:16;5.10;;;2.73;;
15878;SDS011;61999;51.514;14.614;2023-07-22T11:19:45;3.83;;;2.53;;
15878;SDS011;61999;51.514;14.614;2023-07-22T11:22:16;5.87;;;2.70;;
15878;SDS011;61999;51.514;14.614;2023-07-22T11:24:44;2.30;;;2.10;;
15878;SDS011;61999;51.514;14.614;2023-07-22T11:27:12;2.70;;;2.27;;
15878;SDS011;61999;51.514;14.614;2023-07-22T11:29:40;4.10;;;2.47;;
15878;SDS011;61999;51.514;14.614;2023-07-22T11:32:16;2.53;;;2.33;;
15878;SDS011;61999;51.514;14.614;2023-07-22T11:34:47;2.37;;;2.17;;
15878;SDS011;61999;51.514;14.614;2023-07-22T11:37:20;2.77;;;2.57;;
15878;SDS011;61999;51.514;14.614;2023-07-22T11:39:48;3.93;;;2.87;;
15878;SDS011;61999;51.514;14.614;2023-07-22T11:42:15;3.43;;;2.50;;
15878;SDS011;61999;51.514;14.614;2023-07-22T11:44:44;3.90;;;2.83;;
15878;SDS011;61999;51.514;14.614;2023-07-22T11:47:12;3.80;;;2.60;;
15878;SDS011;61999;51.514;14.614;2023-07-22T11:49:41;3.10;;;2.50;;
15878;SDS011;61999;51.514;14.614;2023-07-22T11:52:15;2.80;;;2.53;;
15878;SDS011;61999;51.514;14.614;2023-07-22T11:54:46;3.47;;;2.57;;
15878;SDS011;61999;51.514;14.614;2023-07-22T11:57:18;2.80;;;2.57;;
15878;SDS011;61999;51.514;14.614;2023-07-22T11:59:49;2.70;;;2.50;;
15878;SDS011;61999;51.514;14.614;2023-07-22T12:02:23;2.80;;;2.53;;
15878;SDS011;61999;51.514;14.614;2023-07-22T12:04:53;3.03;;;2.53;;
15878;SDS011;61999;51.514;14.614;2023-07-22T12:07:26;4.27;;;3.20;;
15878;SDS011;61999;51.514;14.614;2023-07-22T12:09:58;3.43;;;2.50;;
15878;SDS011;61999;51.514;14.614;2023-07-22T12:12:32;3.07;;;2.77;;
15878;SDS011;61999;51.514;14.614;2023-07-22T12:15:02;2.80;;;2.60;;
15878;SDS011;61999;51.514;14.614;2023-07-22T12:17:46;2.83;;;2.63;;
15878;SDS011;61999;51.514;14.614;2023-07-22T12:20:15;2.90;;;2.63;;
15878;SDS011;61999;51.514;14.614;2023-07-22T12:22:44;3.27;;;2.43;;
15878;SDS011;61999;51.514;14.614;2023-07-22T12:25:13;3.23;;;2.90;;
15878;SDS011;61999;51.514;14.614;2023-07-22T12:27:41;3.03;;;2.40;;
15878;SDS011;61999;51.514;14.614;2023-07-22T12:30:11;3.40;;;2.60;;
15878;SDS011;61999;51.514;14.614;2023-07-22T12:32:40;3.03;;;2.67;;
15878;SDS011;61999;51.514;14.614;2023-07-22T12:35:09;3.00;;;2.30;;
15878;SDS011;61999;51.514;14.614;2023-07-22T12:37:37;2.50;;;2.30;;
15878;SDS011;61999;51.514;14.614;2023-07-22T12:40:05;2.97;;;2.70;;
15878;SDS011;61999;51.514;14.614;2023-07-22T12:42:36;2.90;;;2.33;;
15878;SDS011;61999;51.514;14.614;2023-07-22T12:45:04;2.77;;;2.47;;
15878;SDS011;61999;51.514;14.614;2023-07-22T12:47:34;2.60;;;2.40;;
15878;SDS011;61999;51.514;14.614;2023-07-22T12:50:05;2.20;;;2.00;;
15878;SDS011;61999;51.514;14.614;2023-07-22T12:52:34;2.27;;;2.07;;
15878;SDS011;61999;51.514;14.614;2023-07-22T12:55:02;10.63;;;2.20;;
15878;SDS011;61999;51.514;14.614;2023-07-22T12:57:31;2.10;;;1.90;;
15878;SDS011;61999;51.514;14.614;2023-07-22T13:00:00;3.38;;;2.03;;
15878;SDS011;61999;51.514;14.614;2023-07-22T13:02:32;2.30;;;2.10;;
15878;SDS011;61999;51.514;14.614;2023-07-22T13:05:00;2.15;;;1.95;;
15878;SDS011;61999;51.514;14.614;2023-07-22T13:07:28;1.90;;;1.80;;
15878;SDS011;61999;51.514;14.614;2023-07-22T13:09:57;5.57;;;2.17;;
15878;SDS011;61999;51.514;14.614;2023-07-22T13:12:27;2.33;;;2.10;;
15878;SDS011;61999;51.514;14.614;2023-07-22T13:14:55;3.50;;;2.50;;
15878;SDS011;61999;51.514;14.614;2023-07-22T13:17:24;3.00;;;2.20;;
15878;SDS011;61999;51.514;14.614;2023-07-22T13:19:52;2.73;;;2.43;;
15878;SDS011;61999;51.514;14.614;2023-07-22T13:22:20;2.30;;;2.10;;
15878;SDS011;61999;51.514;14.614;2023-07-22T13:24:48;2.47;;;2.10;;
15878;SDS011;61999;51.514;14.614;2023-07-22T13:27:16;1.90;;;1.80;;
15878;SDS011;61999;51.514;14.614;2023-07-22T13:29:44;2.70;;;2.50;;
15878;SDS011;61999;51.514;14.614;2023-07-22T13:32:12;2.30;;;2.13;;
15878;SDS011;61999;51.514;14.614;2023-07-22T13:34:41;2.20;;;2.00;;
15878;SDS011;61999;51.514;14.614;2023-07-22T13:37:09;2.27;;;2.07;;
15878;SDS011;61999;51.514;14.614;2023-07-22T13:39:37;2.67;;;2.47;;
15878;SDS011;61999;51.514;14.614;2023-07-22T13:42:05;2.00;;;1.80;;
15878;SDS011;61999;51.514;14.614;2023-07-22T13:44:33;2.83;;;2.63;;
15878;SDS011;61999;51.514;14.614;2023-07-22T13:47:02;2.20;;;2.00;;
15878;SDS011;61999;51.514;14.614;2023-07-22T13:49:31;2.07;;;1.77;;
15878;SDS011;61999;51.514;14.614;2023-07-22T13:52:00;2.23;;;2.03;;
15878;SDS011;61999;51.514;14.614;2023-07-22T13:54:28;2.80;;;2.30;;
15878;SDS011;61999;51.514;14.614;2023-07-22T13:56:56;2.57;;;2.37;;
15878;SDS011;61999;51.514;14.614;2023-07-22T13:59:24;2.37;;;2.17;;
15878;SDS011;61999;51.514;14.614;2023-07-22T14:01:52;2.73;;;2.30;;
15878;SDS011;61999;51.514;14.614;2023-07-22T14:04:20;3.27;;;2.20;;
15878;SDS011;61999;51.514;14.614;2023-07-22T14:06:48;2.10;;;1.97;;
15878;SDS011;61999;51.514;14.614;2023-07-22T14:09:17;3.73;;;2.27;;
15878;SDS011;61999;51.514;14.614;2023-07-22T14:11:45;2.63;;;2.27;;
15878;SDS011;61999;51.514;14.614;2023-07-22T14:14:13;2.63;;;2.27;;
15878;SDS011;61999;51.514;14.614;2023-07-22T14:16:41;2.53;;;2.33;;
15878;SDS011;61999;51.514;14.614;2023-07-22T14:19:09;3.27;;;2.20;;
15878;SDS011;61999;51.514;14.614;2023-07-22T14:21:37;2.40;;;2.20;;
15878;SDS011;61999;51.514;14.614;2023-07-22T14:24:05;2.60;;;2.40;;
15878;SDS011;61999;51.514;14.614;2023-07-22T14:26:34;2.37;;;2.17;;
15878;SDS011;61999;51.514;14.614;2023-07-22T14:29:02;2.47;;;2.10;;
15878;SDS011;61999;51.514;14.614;2023-07-22T14:31:30;2.43;;;2.23;;
15878;SDS011;61999;51.514;14.614;2023-07-22T14:33:57;2.40;;;2.17;;
15878;SDS011;61999;51.514;14.614;2023-07-22T14:36:25;2.37;;;2.10;;
15878;SDS011;61999;51.514;14.614;2023-07-22T14:38:54;2.07;;;1.90;;
15878;SDS011;61999;51.514;14.614;2023-07-22T14:41:23;2.67;;;2.13;;
15878;SDS011;61999;51.514;14.614;2023-07-22T14:43:53;2.50;;;2.30;;
15878;SDS011;61999;51.514;14.614;2023-07-22T14:46:21;3.00;;;2.30;;